createdAt,value
2023-03-04T00:01:37.413Z,18.60
2023-03-04T00:06:59.170Z,18.57
2023-03-04T00:12:20.961Z,18.52
2023-03-04T00:17:42.757Z,18.49
2023-03-04T00:23:04.457Z,18.45
2023-03-04T00:28:26.157Z,18.42
2023-03-04T00:33:48.021Z,18.37
2023-03-04T00:39:09.767Z,18.33
2023-03-04T00:44:31.710Z,18.31
2023-03-04T00:49:53.511Z,18.27
2023-03-04T00:55:15.335Z,18.24
2023-03-04T01:00:37.121Z,18.20
2023-03-04T01:05:59.700Z,18.18
2023-03-04T01:11:21.807Z,18.17
2023-03-04T01:16:43.641Z,18.14
2023-03-04T01:22:05.509Z,18.09
2023-03-04T01:27:27.307Z,18.08
2023-03-04T01:32:49.095Z,18.05
2023-03-04T01:38:10.892Z,18.03
2023-03-04T01:43:33.021Z,17.98
2023-03-04T01:48:55.126Z,17.97
2023-03-04T01:54:17.300Z,17.95
2023-03-04T01:59:38.996Z,17.92
2023-03-04T02:05:00.805Z,17.91
2023-03-04T02:10:23.242Z,17.89
2023-03-04T02:15:48.121Z,17.87
2023-03-04T02:21:19.329Z,17.84
2023-03-04T02:26:43.736Z,17.81
2023-03-04T02:32:05.558Z,17.79
2023-03-04T02:37:27.342Z,17.78
2023-03-04T02:42:49.075Z,17.76
2023-03-04T02:48:12.170Z,17.74
2023-03-04T02:53:34.257Z,17.72
2023-03-04T02:58:55.999Z,17.70
2023-03-04T03:04:19.193Z,17.68
2023-03-04T03:09:40.922Z,17.64
2023-03-04T03:15:02.689Z,17.62
2023-03-04T03:20:24.450Z,17.59
2023-03-04T03:25:46.189Z,17.57
2023-03-04T03:31:08.231Z,17.56
2023-03-04T03:36:30.152Z,17.56
2023-03-04T03:41:51.941Z,17.56
2023-03-04T03:47:13.727Z,17.53
2023-03-04T03:52:35.564Z,17.52
2023-03-04T03:57:57.606Z,17.49
2023-03-04T04:03:19.532Z,17.47
2023-03-04T04:08:41.378Z,17.46
2023-03-04T04:14:03.222Z,17.45
2023-03-04T04:19:25.066Z,17.42
2023-03-04T04:24:47.605Z,17.41
2023-03-04T04:30:10.124Z,17.37
2023-03-04T04:35:33.380Z,17.36
2023-03-04T04:40:57.766Z,17.34
2023-03-04T04:46:19.726Z,17.33
2023-03-04T04:51:41.649Z,17.32
2023-03-04T04:57:03.592Z,17.30
2023-03-04T05:02:25.369Z,17.28
2023-03-04T05:07:47.163Z,17.27
2023-03-04T05:13:08.944Z,17.24
2023-03-04T05:18:31.249Z,17.23
2023-03-04T05:23:53.102Z,17.22
2023-03-04T05:29:14.854Z,17.21
2023-03-04T05:34:36.499Z,17.20
2023-03-04T05:39:58.221Z,17.20
2023-03-04T05:45:20.077Z,17.19
2023-03-04T05:50:41.835Z,17.19
2023-03-04T05:56:11.340Z,17.19
2023-03-04T06:01:33.122Z,17.17
2023-03-04T06:06:54.860Z,17.17
2023-03-04T06:12:16.798Z,17.16
2023-03-04T06:17:42.112Z,17.15
2023-03-04T06:23:04.752Z,17.15
2023-03-04T06:28:26.797Z,17.14
2023-03-04T06:33:48.884Z,17.13
2023-03-04T06:39:10.872Z,17.15
2023-03-04T06:44:32.801Z,17.21
2023-03-04T06:49:54.616Z,17.28
2023-03-04T06:55:16.471Z,17.50
2023-03-04T07:00:38.263Z,17.98
2023-03-04T07:05:59.995Z,18.61
2023-03-04T07:11:22.545Z,19.14
2023-03-04T07:16:44.309Z,19.49
2023-03-04T07:22:06.358Z,19.71
2023-03-04T07:27:28.118Z,19.77
2023-03-04T07:32:49.925Z,19.74
2023-03-04T07:38:11.837Z,19.65
2023-03-04T07:43:33.536Z,19.56
2023-03-04T07:48:56.701Z,19.44
2023-03-04T07:54:20.306Z,19.33
2023-03-04T07:59:42.041Z,19.25
2023-03-04T08:05:04.033Z,19.19
2023-03-04T08:10:25.753Z,19.11
2023-03-04T08:15:47.478Z,19.04
2023-03-04T08:21:11.487Z,19.02
2023-03-04T08:26:40.682Z,19.05
2023-03-04T08:32:02.750Z,19.25
2023-03-04T08:37:24.537Z,19.51
2023-03-04T08:42:46.252Z,19.77
2023-03-04T08:48:07.931Z,20.09
2023-03-04T08:53:29.656Z,20.39
2023-03-04T08:58:51.349Z,20.75
2023-03-04T09:04:13.225Z,21.00
2023-03-04T09:09:35.226Z,21.12
2023-03-04T09:15:10.154Z,21.15
2023-03-04T09:20:32.848Z,21.13
2023-03-04T09:25:54.754Z,21.07
2023-03-04T09:31:16.597Z,20.94
2023-03-04T09:36:38.448Z,20.79
2023-03-04T09:42:02.213Z,20.65
2023-03-04T09:47:26.618Z,20.52
2023-03-04T09:53:14.899Z,20.39
2023-03-04T09:59:03.991Z,20.26
2023-03-04T10:04:40.867Z,20.18
2023-03-04T10:10:10.579Z,20.09
2023-03-04T10:15:48.971Z,20.04
2023-03-04T10:21:21.344Z,19.98
2023-03-04T10:26:46.166Z,19.88
2023-03-04T10:32:13.704Z,19.79
2023-03-04T10:37:51.020Z,19.78
2023-03-04T10:43:15.811Z,19.72
2023-03-04T10:48:41.116Z,19.66
2023-03-04T10:54:31.627Z,19.62
2023-03-04T10:59:58.817Z,19.58
2023-03-04T11:05:26.673Z,19.50
2023-03-04T11:10:52.267Z,19.45
2023-03-04T11:16:27.692Z,19.36
2023-03-04T11:21:51.237Z,19.34
2023-03-04T11:27:27.445Z,19.32
2023-03-04T11:32:51.745Z,19.27
2023-03-04T11:38:21.125Z,19.36
2023-03-04T11:43:45.483Z,19.38
2023-03-04T11:49:09.907Z,19.42
2023-03-04T11:54:58.708Z,19.45
2023-03-04T12:00:57.371Z,19.57
2023-03-04T12:06:36.944Z,19.81
2023-03-04T12:12:35.799Z,20.09
2023-03-04T12:18:26.694Z,20.37
2023-03-04T12:23:48.395Z,20.63
2023-03-04T12:29:12.834Z,20.81
2023-03-04T12:34:55.684Z,20.85
2023-03-04T12:40:54.131Z,20.77
2023-03-04T12:46:21.868Z,20.67
2023-03-04T12:51:53.950Z,20.57
2023-03-04T12:57:21.375Z,20.45
2023-03-04T13:02:54.122Z,20.33
2023-03-04T13:08:37.427Z,20.21
2023-03-04T13:14:09.713Z,20.10
2023-03-04T13:19:51.039Z,19.97
2023-03-04T13:25:50.329Z,19.89
2023-03-04T13:31:18.574Z,19.81
2023-03-04T13:36:55.331Z,19.75
2023-03-04T13:42:40.595Z,19.67
2023-03-04T13:48:05.218Z,19.56
2023-03-04T13:54:00.557Z,19.52
2023-03-04T13:59:44.544Z,19.56
2023-03-04T14:05:07.180Z,19.72
2023-03-04T14:10:29.412Z,19.91
2023-03-04T14:15:56.609Z,20.09
2023-03-04T14:21:18.644Z,20.23
2023-03-04T14:26:40.816Z,20.37
2023-03-04T14:32:05.424Z,20.48
2023-03-04T14:37:34.329Z,20.54
2023-03-04T14:43:01.699Z,20.55
2023-03-04T14:48:30.480Z,20.50
2023-03-04T14:53:56.485Z,20.39
2023-03-04T14:59:18.174Z,20.26
2023-03-04T15:04:41.256Z,20.16
2023-03-04T15:10:07.245Z,20.08
2023-03-04T15:15:40.853Z,19.95
2023-03-04T15:21:26.888Z,19.87
2023-03-04T15:26:50.592Z,19.83
2023-03-04T15:32:12.387Z,19.98
2023-03-04T15:37:34.383Z,20.16
2023-03-04T15:42:58.125Z,20.42
2023-03-04T15:48:20.763Z,20.76
2023-03-04T15:53:46.375Z,21.03
2023-03-04T15:59:13.447Z,21.16
2023-03-04T16:04:35.298Z,21.09
2023-03-04T16:10:02.484Z,21.01
2023-03-04T16:15:27.392Z,20.90
2023-03-04T16:20:50.507Z,20.79
2023-03-04T16:26:21.144Z,20.67
2023-03-04T16:31:42.946Z,20.59
2023-03-04T16:37:12.456Z,20.58
2023-03-04T16:42:34.337Z,20.79
2023-03-04T16:47:56.579Z,21.13
2023-03-04T16:53:31.646Z,21.51
2023-03-04T16:58:57.051Z,21.81
2023-03-04T17:04:18.765Z,22.04
2023-03-04T17:09:42.090Z,22.29
2023-03-04T17:15:04.497Z,22.49
2023-03-04T17:20:26.367Z,22.65
2023-03-04T17:25:56.167Z,22.79
2023-03-04T17:31:19.625Z,22.84
2023-03-04T17:36:41.492Z,22.84
2023-03-04T17:42:05.233Z,22.70
2023-03-04T17:47:27.115Z,22.52
2023-03-04T17:52:48.901Z,22.33
2023-03-04T17:58:11.464Z,22.12
2023-03-04T18:03:33.743Z,21.93
2023-03-04T18:08:55.805Z,21.71
2023-03-04T18:14:17.996Z,21.51
2023-03-04T18:19:40.154Z,21.35
2023-03-04T18:25:01.990Z,21.20
2023-03-04T18:30:27.422Z,21.08
2023-03-04T18:35:49.402Z,20.94
2023-03-04T18:41:13.780Z,20.85
2023-03-04T18:46:48.150Z,20.76
2023-03-04T18:52:09.966Z,20.64
2023-03-04T18:57:31.927Z,20.56
2023-03-04T19:03:06.496Z,20.57
2023-03-04T19:08:29.074Z,20.81
2023-03-04T19:13:52.035Z,21.22
2023-03-04T19:19:15.297Z,21.60
2023-03-04T19:24:37.038Z,21.81
2023-03-04T19:29:58.801Z,21.88
2023-03-04T19:35:20.769Z,21.87
2023-03-04T19:40:43.621Z,21.81
2023-03-04T19:46:09.592Z,21.70
2023-03-04T19:51:32.977Z,21.62
2023-03-04T19:56:55.225Z,21.48
2023-03-04T20:02:17.248Z,21.42
2023-03-04T20:07:40.208Z,21.39
2023-03-04T20:13:02.010Z,21.37
2023-03-04T20:18:23.882Z,21.32
2023-03-04T20:23:45.598Z,21.32
2023-03-04T20:29:07.319Z,21.42
2023-03-04T20:34:29.052Z,21.54
2023-03-04T20:39:51.513Z,21.65
2023-03-04T20:45:13.225Z,21.75
2023-03-04T20:50:34.974Z,21.87
2023-03-04T20:56:03.750Z,22.02
2023-03-04T21:01:26.299Z,22.11
2023-03-04T21:06:48.665Z,22.23
2023-03-04T21:12:10.659Z,22.28
2023-03-04T21:17:32.394Z,22.28
2023-03-04T21:22:54.051Z,22.24
2023-03-04T21:28:16.195Z,22.18
2023-03-04T21:33:37.897Z,22.12
2023-03-04T21:38:59.624Z,22.07
2023-03-04T21:44:28.488Z,21.98
2023-03-04T21:49:55.174Z,21.85
2023-03-04T21:55:17.125Z,21.76
2023-03-04T22:00:39.291Z,21.63
2023-03-04T22:06:05.517Z,21.50
2023-03-04T22:11:31.083Z,21.34
2023-03-04T22:16:55.624Z,21.20
2023-03-04T22:22:19.134Z,21.09
2023-03-04T22:27:40.883Z,20.96
2023-03-04T22:33:03.215Z,20.85
2023-03-04T22:38:25.082Z,20.73
2023-03-04T22:43:47.847Z,20.64
2023-03-04T22:49:12.666Z,20.55
2023-03-04T22:54:34.489Z,20.46
2023-03-04T22:59:56.321Z,20.37
2023-03-04T23:05:21.071Z,20.28
2023-03-04T23:10:42.881Z,20.20
2023-03-04T23:16:08.233Z,20.14
2023-03-04T23:21:34.131Z,20.07
2023-03-04T23:26:56.024Z,20.02
2023-03-04T23:32:17.703Z,19.95
2023-03-04T23:37:39.543Z,19.88
2023-03-04T23:43:01.671Z,19.83
2023-03-04T23:48:23.389Z,19.76
2023-03-04T23:53:45.943Z,19.73
2023-03-04T23:59:08.105Z,19.67
